sim
Sign-in with your pilot id or email,
or register
Callsign
Passwort

Schedule Details

Flight Number: DLH2463
Departure: Helsinki Vantaa Airport (EFHK) at 10:45
Arrival: Munich Airport (EDDM) at 13:25
Route: Lufthansa Passenger Schedule. Enter filed route here before submitting Pirep.

Weather Information
Getting current METAR information for EFHK 252350Z 08005KT CAVOK 13/12 Q1008 NOSIG
Getting current METAR information for EDDM 260020Z 27009KT 9999 -RA FEW025 BKN037 07/06 Q1000 NOSIG

Schedule Frequency

Route Map